Time;durP1;ratioP1;P1;durP2;ratioP2;P2;SDS_P1;SDS_P2;PMS_P1;PMS_P2;Temp;Humidity;BMP_temperature;BMP_pressure;BME280_temperature;BME280_humidity;BME280_pressure;Samples;Min_cycle;Max_cycle;Signal;HPM_P1;HPM_P2
2021/12/15 00:02:22;;;;;;;57.97;29.02;;;10.10;99.90;;;;;;5033954;28;20045;-71
2021/12/15 00:04:51;;;;;;;61.55;30.27;;;10.20;99.90;;;;;;5032052;28;20518;-71
2021/12/15 00:07:21;;;;;;;60.67;31.17;;;10.20;99.90;;;;;;5034089;28;20560;-70
2021/12/15 00:09:47;;;;;;;59.63;29.73;;;10.20;99.90;;;;;;5032999;28;20069;-70
2021/12/15 00:12:14;;;;;;;56.75;29.08;;;10.20;99.90;;;;;;5030876;28;20515;-69
2021/12/15 00:14:41;;;;;;;55.90;29.15;;;10.20;99.90;;;;;;5034521;28;20095;-70
2021/12/15 00:17:07;;;;;;;54.58;28.50;;;10.20;99.90;;;;;;5016274;28;20052;-71
2021/12/15 00:19:33;;;;;;;66.70;32.05;;;10.20;99.90;;;;;;5037092;28;20481;-72
2021/12/15 00:21:59;;;;;;;61.05;30.10;;;10.20;99.90;;;;;;5031859;28;20053;-71
2021/12/15 00:24:25;;;;;;;53.33;29.33;;;10.10;99.90;;;;;;5035994;28;20037;-70
2021/12/15 00:26:53;;;;;;;61.60;30.45;;;10.20;99.90;;;;;;5032464;28;20055;-70
2021/12/15 00:29:19;;;;;;;56.42;28.02;;;10.20;99.90;;;;;;5032152;28;20459;-70
2021/12/15 00:31:46;;;;;;;56.60;28.25;;;10.20;99.90;;;;;;5036053;28;20121;-70
2021/12/15 00:34:13;;;;;;;57.00;29.23;;;10.20;99.90;;;;;;5033602;28;20557;-70
2021/12/15 00:36:39;;;;;;;58.90;29.63;;;10.20;99.90;;;;;;5031588;28;20048;-70
2021/12/15 00:39:06;;;;;;;58.97;28.88;;;10.20;99.90;;;;;;5029926;28;20092;-70
2021/12/15 00:41:32;;;;;;;63.53;30.40;;;10.20;99.90;;;;;;5036742;28;20087;-70
2021/12/15 00:43:58;;;;;;;55.20;27.58;;;10.20;99.90;;;;;;5030898;28;20049;-69
2021/12/15 00:46:24;;;;;;;52.47;26.75;;;10.20;99.90;;;;;;5033073;28;20033;-70
2021/12/15 00:48:50;;;;;;;57.88;29.45;;;10.20;99.90;;;;;;5031247;28;20082;-68
2021/12/15 00:51:16;;;;;;;57.28;28.10;;;10.20;99.90;;;;;;5030133;28;20081;-69
2021/12/15 00:53:42;;;;;;;64.63;30.42;;;10.20;99.90;;;;;;5038285;28;20055;-69
2021/12/15 00:56:08;;;;;;;63.70;29.75;;;10.20;99.90;;;;;;5043059;28;20437;-69
2021/12/15 00:58:33;;;;;;;67.65;30.95;;;10.20;99.90;;;;;;5031944;28;20131;-68
2021/12/15 01:01:01;;;;;;;72.32;30.95;;;10.20;99.90;;;;;;5032930;28;20076;-69
2021/12/15 01:03:29;;;;;;;63.22;29.83;;;10.20;99.90;;;;;;5033871;28;20476;-69
2021/12/15 01:06:02;;;;;;;72.93;30.50;;;10.20;99.90;;;;;;5033605;28;20095;-68
2021/12/15 01:08:30;;;;;;;65.03;29.10;;;10.20;99.90;;;;;;5034209;28;20033;-69
2021/12/15 01:11:08;;;;;;;66.50;29.35;;;10.20;99.90;;;;;;5034033;28;20048;-68
2021/12/15 01:21:55;;;;;;;60.30;27.20;;;10.20;99.90;;;;;;5029325;28;20057;-69
2021/12/15 01:24:21;;;;;;;65.35;28.60;;;10.20;99.90;;;;;;5033160;28;20127;-69
2021/12/15 01:26:46;;;;;;;65.00;29.02;;;10.20;99.90;;;;;;5034816;28;20052;-71
2021/12/15 01:29:12;;;;;;;64.47;28.30;;;10.20;99.90;;;;;;5030003;28;20044;-70
2021/12/15 01:31:38;;;;;;;64.55;28.52;;;10.20;99.90;;;;;;5032316;28;20041;-70
2021/12/15 01:34:04;;;;;;;66.25;28.23;;;10.20;99.90;;;;;;5051766;28;20563;-69
2021/12/15 01:36:30;;;;;;;58.95;26.63;;;10.20;99.90;;;;;;5032691;28;20146;-70
2021/12/15 01:38:56;;;;;;;61.97;26.77;;;10.20;99.90;;;;;;5032296;28;20053;-70
2021/12/15 01:41:23;;;;;;;50.08;26.15;;;10.20;99.90;;;;;;5033697;28;20045;-70
2021/12/15 01:46:54;;;;;;;63.08;26.70;;;10.20;99.90;;;;;;5029131;28;20107;-70
2021/12/15 01:49:39;;;;;;;62.53;27.05;;;10.20;99.90;;;;;;5030828;28;20041;-70
2021/12/15 01:52:15;;;;;;;54.30;25.73;;;10.20;99.90;;;;;;5032942;28;20477;-70
2021/12/15 01:54:44;;;;;;;57.55;26.73;;;10.20;99.90;;;;;;5034510;28;20153;-69
2021/12/15 01:57:11;;;;;;;58.13;25.92;;;10.10;99.90;;;;;;5033874;28;20052;-70
2021/12/15 01:59:38;;;;;;;58.67;27.63;;;10.20;99.90;;;;;;5032245;28;20152;-69
2021/12/15 02:02:05;;;;;;;53.97;25.00;;;10.20;99.90;;;;;;5036572;28;20507;-69
2021/12/15 02:04:30;;;;;;;55.45;25.85;;;10.20;99.90;;;;;;5035289;28;20049;-70
2021/12/15 02:06:57;;;;;;;63.40;27.83;;;10.20;99.90;;;;;;5035417;28;20106;-69
2021/12/15 02:11:59;;;;;;;60.28;27.13;;;10.20;99.90;;;;;;5033896;28;20056;-68
2021/12/15 02:14:25;;;;;;;59.88;26.83;;;10.20;99.90;;;;;;5035614;28;20044;-68
2021/12/15 02:16:50;;;;;;;64.00;27.02;;;10.20;99.90;;;;;;5031782;28;20049;-70
2021/12/15 02:19:16;;;;;;;64.15;28.33;;;10.20;99.90;;;;;;5033956;28;20072;-70
2021/12/15 02:21:42;;;;;;;72.30;30.77;;;10.20;99.90;;;;;;5037764;28;20372;-71
2021/12/15 02:24:07;;;;;;;65.05;29.33;;;10.20;99.90;;;;;;5012912;28;20049;-72
2021/12/15 02:26:38;;;;;;;61.97;27.80;;;10.20;99.90;;;;;;5043749;28;20060;-71
2021/12/15 02:29:06;;;;;;;71.60;30.05;;;10.20;99.90;;;;;;5032824;28;20046;-71
2021/12/15 02:31:56;;;;;;;66.57;29.73;;;10.20;99.90;;;;;;5031640;28;20045;-70
2021/12/15 02:39:37;;;;;;;63.83;28.70;;;10.10;99.90;;;;;;5049436;28;20041;-71
2021/12/15 02:42:04;;;;;;;63.53;29.05;;;10.20;99.90;;;;;;5042516;28;20452;-70
2021/12/15 02:44:29;;;;;;;69.13;30.42;;;10.20;99.90;;;;;;5043580;28;20137;-70
2021/12/15 02:46:56;;;;;;;70.78;30.90;;;10.20;99.90;;;;;;5044575;28;20105;-71
2021/12/15 02:49:30;;;;;;;78.72;32.75;;;10.20;99.90;;;;;;5042539;28;20543;-70
2021/12/15 02:51:59;;;;;;;74.03;32.42;;;10.20;99.90;;;;;;5043021;28;20114;-71
2021/12/15 02:54:26;;;;;;;80.80;33.65;;;10.20;99.90;;;;;;5046615;28;20056;-70
2021/12/15 02:56:53;;;;;;;68.85;31.55;;;10.20;99.90;;;;;;5043596;28;20053;-70
2021/12/15 02:59:30;;;;;;;76.40;33.25;;;10.20;99.90;;;;;;5035317;28;20177;-70
2021/12/15 03:02:06;;;;;;;71.93;33.72;;;10.20;99.90;;;;;;5056914;28;20136;-71
2021/12/15 03:07:18;;;;;;;74.85;34.03;;;10.20;99.90;;;;;;5038161;28;20061;-70
2021/12/15 03:15:29;;;;;;;75.45;35.58;;;10.20;99.90;;;;;;5045451;28;20056;-71
2021/12/15 03:18:09;;;;;;;79.00;34.83;;;10.20;99.90;;;;;;5036828;28;20056;-70
2021/12/15 03:20:58;;;;;;;74.05;35.80;;;10.10;99.90;;;;;;5041464;28;20049;-71
2021/12/15 03:23:49;;;;;;;71.30;33.42;;;10.10;99.90;;;;;;5035043;28;20057;-71
2021/12/15 03:26:19;;;;;;;77.13;34.05;;;10.20;99.90;;;;;;5038023;28;20500;-72
2021/12/15 03:35:03;;;;;;;76.32;34.90;;;10.10;99.90;;;;;;5032695;28;20065;-71
2021/12/15 03:37:22;;;;;;;77.90;35.85;;;10.10;99.90;;;;;;5034492;28;20072;-72
2021/12/15 03:39:54;;;;;;;78.22;36.92;;;10.10;99.90;;;;;;5032166;28;20029;-72
2021/12/15 03:42:27;;;;;;;74.88;35.72;;;10.10;99.90;;;;;;5034319;28;20048;-71
2021/12/15 03:44:53;;;;;;;81.10;37.33;;;10.10;99.90;;;;;;5039968;28;20056;-71
2021/12/15 03:47:23;;;;;;;81.95;38.05;;;10.10;99.90;;;;;;5033472;28;20098;-72
2021/12/15 03:49:50;;;;;;;72.90;34.78;;;10.10;99.90;;;;;;5033788;28;20065;-71
2021/12/15 03:52:16;;;;;;;79.63;37.38;;;10.10;99.90;;;;;;5031720;28;20136;-72
2021/12/15 03:54:43;;;;;;;74.57;36.83;;;10.10;99.90;;;;;;5034626;28;20560;-71
2021/12/15 03:57:09;;;;;;;73.35;35.58;;;10.10;99.90;;;;;;5032453;28;20449;-69
2021/12/15 03:59:40;;;;;;;74.45;36.13;;;10.10;99.90;;;;;;5034537;28;20040;-71
2021/12/15 04:02:06;;;;;;;75.75;37.40;;;10.10;99.90;;;;;;5031331;28;20080;-71
2021/12/15 04:04:31;;;;;;;78.05;38.13;;;10.10;99.90;;;;;;5033346;28;20048;-70
2021/12/15 04:06:57;;;;;;;74.07;38.50;;;10.10;99.90;;;;;;5033625;28;20041;-70
2021/12/15 04:09:23;;;;;;;79.72;40.05;;;10.10;99.90;;;;;;5030963;28;20045;-71
2021/12/15 04:11:49;;;;;;;78.80;37.83;;;10.10;99.90;;;;;;5013055;28;20072;-70
2021/12/15 04:14:21;;;;;;;82.28;38.58;;;10.10;99.90;;;;;;5033816;28;20110;-68
2021/12/15 04:16:59;;;;;;;80.57;39.03;;;10.10;99.90;;;;;;5032121;28;20047;-71
2021/12/15 04:19:25;;;;;;;79.75;39.47;;;10.10;99.90;;;;;;5030861;28;20042;-69
2021/12/15 04:21:50;;;;;;;76.78;36.83;;;10.10;99.90;;;;;;5033022;28;20079;-70
2021/12/15 04:24:18;;;;;;;83.82;39.97;;;10.10;99.90;;;;;;5037721;28;20064;-69
2021/12/15 04:26:46;;;;;;;83.93;40.13;;;10.10;99.90;;;;;;5030842;28;20049;-69
2021/12/15 04:29:12;;;;;;;74.22;36.40;;;10.10;99.90;;;;;;5034072;28;20041;-69
2021/12/15 04:31:42;;;;;;;79.20;40.17;;;10.10;99.90;;;;;;5032940;28;20037;-70
2021/12/15 04:34:09;;;;;;;77.55;38.63;;;10.00;99.90;;;;;;5031681;28;20041;-72
2021/12/15 04:36:39;;;;;;;79.18;40.17;;;10.00;99.90;;;;;;5035421;28;20487;-72
2021/12/15 04:39:07;;;;;;;83.00;41.60;;;10.00;99.90;;;;;;5035493;28;20045;-72
2021/12/15 04:41:33;;;;;;;72.82;36.88;;;10.10;99.90;;;;;;5033103;28;20045;-71
2021/12/15 04:44:01;;;;;;;73.10;39.40;;;10.10;99.90;;;;;;5030086;28;20270;-70
2021/12/15 04:46:34;;;;;;;74.82;38.05;;;10.10;99.90;;;;;;5035838;28;20868;-68
2021/12/15 04:49:01;;;;;;;80.32;40.42;;;10.00;99.90;;;;;;5035749;28;20069;-67
2021/12/15 04:51:27;;;;;;;83.50;39.97;;;10.10;99.90;;;;;;5046963;28;20049;-68
2021/12/15 04:53:54;;;;;;;80.70;39.67;;;10.00;99.90;;;;;;5041650;28;20053;-70
2021/12/15 04:56:20;;;;;;;79.13;39.33;;;10.00;99.90;;;;;;5047369;28;20037;-69
2021/12/15 04:58:48;;;;;;;71.20;38.25;;;10.00;99.90;;;;;;5037265;28;20137;-71
2021/12/15 05:01:14;;;;;;;74.30;39.25;;;10.00;99.90;;;;;;5036963;28;20048;-75
2021/12/15 05:03:40;;;;;;;73.97;39.45;;;10.00;99.90;;;;;;5033639;28;20044;-68
2021/12/15 05:06:07;;;;;;;78.45;40.05;;;10.10;99.90;;;;;;5043197;28;20056;-70
2021/12/15 05:08:34;;;;;;;78.82;41.22;;;10.10;99.90;;;;;;5035706;28;20056;-70
2021/12/15 05:11:00;;;;;;;74.82;39.05;;;10.10;99.90;;;;;;5032973;28;20096;-71
2021/12/15 05:13:27;;;;;;;74.05;40.47;;;10.10;99.90;;;;;;5040675;28;20044;-72
2021/12/15 05:15:53;;;;;;;70.35;38.50;;;10.00;99.90;;;;;;5033799;28;20120;-71
2021/12/15 05:18:19;;;;;;;70.13;37.45;;;10.10;99.90;;;;;;5033826;28;20046;-71
2021/12/15 05:20:50;;;;;;;72.15;37.35;;;10.00;99.90;;;;;;5041792;28;20057;-70
2021/12/15 05:23:17;;;;;;;77.85;39.67;;;10.10;99.90;;;;;;5039720;28;20049;-72
2021/12/15 05:25:44;;;;;;;81.65;41.03;;;10.00;99.90;;;;;;5036403;28;20053;-71
2021/12/15 05:28:10;;;;;;;69.45;38.10;;;10.00;99.90;;;;;;5036953;28;20057;-72
2021/12/15 05:30:36;;;;;;;78.50;40.42;;;10.00;99.90;;;;;;5047357;28;20037;-72
2021/12/15 05:33:03;;;;;;;76.22;39.25;;;10.00;99.90;;;;;;5033911;28;20043;-72
2021/12/15 05:35:29;;;;;;;73.40;39.10;;;10.00;99.90;;;;;;5042487;28;20048;-70
2021/12/15 05:37:57;;;;;;;76.63;40.70;;;10.00;99.90;;;;;;5049871;28;20432;-71
2021/12/15 05:40:25;;;;;;;70.20;36.70;;;10.10;99.90;;;;;;5039960;28;20040;-72
2021/12/15 05:42:56;;;;;;;82.07;39.97;;;10.00;99.90;;;;;;5037394;28;20481;-70
2021/12/15 05:45:26;;;;;;;76.10;38.53;;;10.00;99.90;;;;;;5034149;28;20041;-71
2021/12/15 05:47:52;;;;;;;72.43;38.83;;;10.10;99.90;;;;;;5051078;28;20069;-70
2021/12/15 05:50:19;;;;;;;78.05;39.20;;;10.00;99.90;;;;;;5036362;28;20042;-70
2021/12/15 05:52:45;;;;;;;75.85;39.03;;;10.00;99.90;;;;;;5029565;28;20033;-72
2021/12/15 05:55:13;;;;;;;78.10;39.95;;;10.00;99.90;;;;;;5029512;28;20052;-72
2021/12/15 05:57:39;;;;;;;76.97;37.10;;;10.00;99.90;;;;;;5034950;28;20149;-70
2021/12/15 06:00:17;;;;;;;77.78;39.25;;;10.00;99.90;;;;;;5035075;28;20077;-72
2021/12/15 06:02:43;;;;;;;73.78;38.80;;;10.00;99.90;;;;;;5031554;28;20080;-71
2021/12/15 06:05:10;;;;;;;76.60;37.75;;;10.00;99.90;;;;;;5030475;28;20092;-72
2021/12/15 06:07:37;;;;;;;78.38;39.25;;;10.00;99.90;;;;;;5034862;28;20376;-73
2021/12/15 06:10:08;;;;;;;71.53;38.08;;;10.00;99.90;;;;;;5046141;28;20363;-72
2021/12/15 06:12:34;;;;;;;76.68;37.50;;;10.00;99.90;;;;;;5035805;28;20045;-71
2021/12/15 06:14:59;;;;;;;75.85;36.97;;;10.00;99.90;;;;;;5037856;28;20058;-72
2021/12/15 06:17:26;;;;;;;72.05;37.33;;;10.00;99.90;;;;;;5033732;28;20041;-72
2021/12/15 06:19:53;;;;;;;77.53;37.50;;;10.00;99.90;;;;;;5045292;28;20040;-70
2021/12/15 06:22:24;;;;;;;70.68;36.67;;;10.00;99.90;;;;;;5036885;28;20056;-70
2021/12/15 06:24:51;;;;;;;77.63;38.65;;;10.00;99.90;;;;;;5042007;28;20062;-71
2021/12/15 06:27:19;;;;;;;76.30;38.05;;;10.00;99.90;;;;;;5042580;28;20065;-71
2021/12/15 06:29:46;;;;;;;76.40;37.67;;;10.00;99.90;;;;;;5040193;28;20083;-73
2021/12/15 06:32:12;;;;;;;77.78;37.15;;;10.00;99.90;;;;;;5036692;28;20044;-72
2021/12/15 06:34:41;;;;;;;75.47;38.00;;;10.00;99.90;;;;;;5019019;28;20138;-71
2021/12/15 06:37:09;;;;;;;69.55;35.60;;;10.00;99.90;;;;;;5042777;28;20099;-71
2021/12/15 06:39:38;;;;;;;75.75;37.40;;;10.00;99.90;;;;;;5033409;28;20455;-72
2021/12/15 06:42:04;;;;;;;75.95;37.38;;;10.00;99.90;;;;;;5046973;28;20128;-70
2021/12/15 06:44:33;;;;;;;80.05;37.10;;;10.00;99.90;;;;;;5039597;28;20037;-71
2021/12/15 07:00:30;;;;;;;71.53;34.60;;;10.00;99.90;;;;;;5032893;28;20056;-72
2021/12/15 07:02:57;;;;;;;70.30;34.10;;;10.00;99.90;;;;;;5033023;28;20758;-72
2021/12/15 07:05:24;;;;;;;69.10;34.72;;;10.00;99.90;;;;;;5032910;28;20049;-74
2021/12/15 07:07:51;;;;;;;76.50;34.83;;;10.00;99.90;;;;;;5033529;28;20038;-70
2021/12/15 07:10:21;;;;;;;75.55;36.88;;;10.00;99.90;;;;;;5032013;28;20045;-71
2021/12/15 07:12:48;;;;;;;71.05;35.55;;;10.00;99.90;;;;;;5042149;28;20484;-70
2021/12/15 07:15:14;;;;;;;68.40;32.05;;;10.00;99.90;;;;;;5033522;28;20408;-70
2021/12/15 07:17:40;;;;;;;65.05;33.75;;;10.00;99.90;;;;;;5031208;28;20401;-71
2021/12/15 07:20:33;;;;;;;65.50;33.08;;;10.00;99.90;;;;;;5032731;28;20045;-70
2021/12/15 07:23:01;;;;;;;68.90;35.00;;;10.00;99.90;;;;;;5035442;28;20398;-71
2021/12/15 07:25:29;;;;;;;71.28;35.17;;;10.00;99.90;;;;;;5031931;28;20130;-71
2021/12/15 07:27:56;;;;;;;72.95;34.80;;;10.00;99.90;;;;;;5035012;28;20413;-72
2021/12/15 07:30:23;;;;;;;71.45;34.60;;;10.00;99.90;;;;;;5022058;28;20219;-71
2021/12/15 07:32:49;;;;;;;65.93;34.85;;;10.00;99.90;;;;;;5039073;28;20041;-71
2021/12/15 07:35:17;;;;;;;73.25;35.33;;;10.00;99.90;;;;;;5064674;28;20684;-71
2021/12/15 07:37:43;;;;;;;75.20;35.08;;;10.00;99.90;;;;;;5059356;28;20068;-71
2021/12/15 07:40:19;;;;;;;68.10;33.40;;;10.00;99.90;;;;;;5040414;28;20041;-72
2021/12/15 07:42:57;;;;;;;63.60;33.35;;;10.00;99.90;;;;;;5045720;28;20053;-72
2021/12/15 07:45:25;;;;;;;66.80;33.42;;;10.00;99.90;;;;;;5046641;28;20448;-72
2021/12/15 07:47:53;;;;;;;72.90;33.75;;;10.00;99.90;;;;;;5049746;28;20163;-71
2021/12/15 07:50:19;;;;;;;70.15;33.85;;;10.00;99.90;;;;;;5046084;28;20353;-71
2021/12/15 07:52:47;;;;;;;72.22;34.00;;;10.00;99.90;;;;;;5031456;28;20145;-73
2021/12/15 07:55:13;;;;;;;72.25;34.08;;;10.00;99.90;;;;;;5030252;28;20381;-71
2021/12/15 07:57:39;;;;;;;64.55;31.80;;;10.00;99.90;;;;;;5041263;28;20045;-72
2021/12/15 08:00:07;;;;;;;69.03;33.28;;;10.00;99.90;;;;;;5045954;28;20289;-72
2021/12/15 08:02:33;;;;;;;63.08;32.03;;;10.00;99.90;;;;;;5050136;28;20047;-72
2021/12/15 08:04:58;;;;;;;66.47;32.45;;;10.00;99.90;;;;;;5040643;28;20412;-72
2021/12/15 08:07:24;;;;;;;65.00;33.08;;;10.00;99.90;;;;;;5046782;28;20148;-72
2021/12/15 08:09:50;;;;;;;66.88;32.20;;;10.00;99.90;;;;;;5030212;28;20049;-72
2021/12/15 08:12:16;;;;;;;65.68;31.27;;;10.00;99.90;;;;;;5029614;28;20546;-71
2021/12/15 08:14:41;;;;;;;72.13;32.22;;;10.00;99.90;;;;;;5029736;28;20134;-72
2021/12/15 08:17:07;;;;;;;74.82;34.45;;;10.00;99.90;;;;;;5030270;28;20048;-72
2021/12/15 08:19:33;;;;;;;64.63;33.25;;;10.10;99.90;;;;;;5028996;28;20235;-72
2021/12/15 08:21:58;;;;;;;68.00;33.78;;;10.10;99.90;;;;;;5048047;28;20412;-70
2021/12/15 08:24:24;;;;;;;66.70;31.65;;;10.10;99.90;;;;;;5046846;28;20089;-70
2021/12/15 08:26:50;;;;;;;70.85;33.35;;;10.10;99.90;;;;;;5049713;28;20045;-72
2021/12/15 08:29:16;;;;;;;67.82;32.55;;;10.10;99.90;;;;;;5049164;28;20084;-71
2021/12/15 08:31:41;;;;;;;62.50;29.08;;;10.10;99.90;;;;;;5046719;28;20081;-72
2021/12/15 08:34:08;;;;;;;68.25;32.45;;;10.10;99.90;;;;;;5048021;28;20148;-72
2021/12/15 08:36:36;;;;;;;68.25;32.72;;;10.10;99.90;;;;;;5026447;28;20065;-71
2021/12/15 08:39:03;;;;;;;63.03;29.73;;;10.20;99.90;;;;;;5029261;28;20049;-72
2021/12/15 08:41:29;;;;;;;62.47;31.67;;;10.20;99.90;;;;;;5029429;28;20042;-71
2021/12/15 08:43:56;;;;;;;66.20;31.45;;;10.20;99.90;;;;;;5028263;28;20081;-71
2021/12/15 08:46:26;;;;;;;68.22;31.45;;;10.20;99.90;;;;;;5028613;28;20049;-72
2021/12/15 08:48:53;;;;;;;72.65;32.22;;;10.20;99.90;;;;;;5028917;28;20052;-71
2021/12/15 08:51:25;;;;;;;66.05;31.10;;;10.20;99.90;;;;;;5026557;28;20405;-71
2021/12/15 08:53:56;;;;;;;69.00;31.08;;;10.20;99.90;;;;;;5027236;28;20446;-71
2021/12/15 08:56:22;;;;;;;65.40;31.25;;;10.30;99.90;;;;;;5029776;28;20053;-71
2021/12/15 08:58:48;;;;;;;60.67;30.60;;;10.20;99.90;;;;;;5045663;28;20099;-71
2021/12/15 09:01:14;;;;;;;60.47;29.73;;;10.30;99.90;;;;;;5046798;28;20132;-71
2021/12/15 09:03:42;;;;;;;66.32;31.92;;;10.30;99.90;;;;;;5048944;28;20184;-70
2021/12/15 09:06:09;;;;;;;64.55;31.83;;;10.30;99.90;;;;;;5030497;28;20100;-71
2021/12/15 09:08:35;;;;;;;62.90;31.80;;;10.30;99.90;;;;;;5025742;28;20580;-70
2021/12/15 09:11:06;;;;;;;63.50;30.13;;;10.30;99.90;;;;;;5029338;28;20475;-70
2021/12/15 09:13:32;;;;;;;65.50;31.05;;;10.30;99.90;;;;;;5028071;28;20060;-70
2021/12/15 09:16:06;;;;;;;58.75;29.45;;;10.30;99.90;;;;;;5031063;28;20120;-70
2021/12/15 09:18:33;;;;;;;66.00;31.83;;;10.40;99.90;;;;;;5040767;28;20041;-72
2021/12/15 09:21:00;;;;;;;61.80;29.45;;;10.40;99.90;;;;;;5040510;28;20041;-70
2021/12/15 09:23:27;;;;;;;63.60;30.60;;;10.50;99.90;;;;;;5033852;28;20048;-72
2021/12/15 09:25:53;;;;;;;59.80;29.83;;;10.50;99.90;;;;;;5033613;28;20192;-71
2021/12/15 09:28:19;;;;;;;67.82;31.27;;;10.50;99.90;;;;;;5043294;28;20330;-70
2021/12/15 09:30:47;;;;;;;62.22;30.65;;;10.50;99.90;;;;;;5038492;28;20045;-71
2021/12/15 09:33:33;;;;;;;67.25;32.25;;;10.50;99.90;;;;;;5031347;28;20072;-70
2021/12/15 09:36:01;;;;;;;60.90;31.30;;;10.50;99.90;;;;;;5042444;28;20041;-71
2021/12/15 09:38:27;;;;;;;64.28;30.10;;;10.50;99.90;;;;;;5044964;28;20063;-72
2021/12/15 09:40:56;;;;;;;65.75;30.63;;;10.50;99.90;;;;;;5039421;28;20080;-70
2021/12/15 09:43:22;;;;;;;66.13;31.02;;;10.50;99.90;;;;;;5034294;28;20061;-71
2021/12/15 09:46:01;;;;;;;64.22;30.63;;;10.60;99.90;;;;;;5042002;28;20437;-71
2021/12/15 09:57:15;;;;;;;61.05;30.42;;;10.50;99.90;;;;;;5030472;28;19940;-72
2021/12/15 10:02:44;;;;;;;;;;;10.70;99.90;;;;;;5033367;28;20053;-70
2021/12/15 10:19:05;;;;;;;49.13;25.08;;;10.70;99.90;;;;;;5032128;28;20054;-69
2021/12/15 10:21:35;;;;;;;53.80;26.67;;;10.70;99.90;;;;;;5041692;28;20127;-71
2021/12/15 10:24:01;;;;;;;47.33;25.42;;;10.70;99.90;;;;;;5034438;28;20504;-71
2021/12/15 10:26:27;;;;;;;50.30;26.10;;;10.70;99.90;;;;;;5028469;28;20058;-71
2021/12/15 10:28:54;;;;;;;48.85;25.73;;;10.70;99.90;;;;;;5029331;28;20450;-71
2021/12/15 10:31:27;;;;;;;48.30;26.27;;;10.70;99.90;;;;;;5029499;28;20037;-71
2021/12/15 10:33:58;;;;;;;49.08;24.92;;;10.80;99.90;;;;;;5028541;28;20179;-71
2021/12/15 10:36:34;;;;;;;51.10;25.90;;;10.80;99.90;;;;;;5029855;28;20149;-72
2021/12/15 10:39:04;;;;;;;50.25;25.00;;;10.90;99.90;;;;;;5045699;28;20045;-71
2021/12/15 10:41:36;;;;;;;47.50;24.80;;;10.90;99.90;;;;;;5030094;28;20369;-71
2021/12/15 10:44:07;;;;;;;46.08;23.23;;;11.00;99.90;;;;;;5028019;28;20094;-72
2021/12/15 10:46:51;;;;;;;52.00;25.52;;;11.10;99.90;;;;;;5026390;28;20087;-71
2021/12/15 10:49:32;;;;;;;45.25;23.45;;;11.10;99.90;;;;;;5034202;28;20175;-71
2021/12/15 10:52:09;;;;;;;43.53;22.85;;;11.10;99.90;;;;;;5029640;28;20052;-71
2021/12/15 10:54:56;;;;;;;46.63;24.63;;;11.20;99.90;;;;;;5049877;28;20516;-71
2021/12/15 10:57:34;;;;;;;47.90;25.55;;;11.10;99.90;;;;;;5051313;28;20098;-71
2021/12/15 11:00:00;;;;;;;46.67;23.73;;;11.20;99.90;;;;;;5047007;28;20091;-70
2021/12/15 11:02:29;;;;;;;46.83;24.83;;;11.20;99.90;;;;;;5040522;28;20049;-70
2021/12/15 11:05:10;;;;;;;40.83;21.98;;;11.20;99.90;;;;;;5031516;28;20554;-71
2021/12/15 11:07:46;;;;;;;49.05;24.60;;;11.20;99.90;;;;;;5038868;28;20084;-71
2021/12/15 11:10:26;;;;;;;49.38;24.63;;;11.20;99.90;;;;;;5042142;28;20159;-70
2021/12/15 11:12:59;;;;;;;45.55;24.38;;;11.20;99.90;;;;;;5039454;28;20072;-70
2021/12/15 11:15:27;;;;;;;44.33;23.77;;;11.10;99.90;;;;;;5043321;28;20059;-70
2021/12/15 11:18:15;;;;;;;44.15;23.58;;;11.10;99.90;;;;;;5038348;28;20411;-71
2021/12/15 11:21:04;;;;;;;43.75;24.05;;;11.10;99.90;;;;;;5048973;28;20060;-71
2021/12/15 11:23:33;;;;;;;46.72;23.70;;;11.10;99.90;;;;;;5033587;28;20060;-71
2021/12/15 11:26:07;;;;;;;45.30;23.90;;;11.10;99.90;;;;;;5051051;28;20111;-71
2021/12/15 11:28:40;;;;;;;40.17;20.80;;;11.10;99.90;;;;;;5049023;28;20037;-71
2021/12/15 11:31:12;;;;;;;38.22;20.25;;;11.20;99.90;;;;;;5052043;28;20041;-70
2021/12/15 11:33:45;;;;;;;37.75;20.13;;;11.20;99.90;;;;;;5047234;28;20091;-70
2021/12/15 11:36:16;;;;;;;34.55;19.67;;;11.20;99.90;;;;;;5056896;28;20133;-72
2021/12/15 11:38:43;;;;;;;35.30;19.67;;;11.30;99.90;;;;;;5049804;28;20040;-72
2021/12/15 11:41:17;;;;;;;37.42;18.92;;;11.30;99.90;;;;;;5051672;28;20094;-73
2021/12/15 11:43:53;;;;;;;35.53;19.83;;;11.30;99.90;;;;;;5042010;28;20067;-73
2021/12/15 11:46:33;;;;;;;35.22;19.23;;;11.30;99.90;;;;;;5031976;28;20075;-73
2021/12/15 11:49:13;;;;;;;31.58;18.92;;;11.30;99.90;;;;;;5044068;28;20048;-72
2021/12/15 11:51:44;;;;;;;32.28;17.38;;;11.30;99.90;;;;;;5034463;28;20457;-73
2021/12/15 11:54:23;;;;;;;32.78;18.05;;;11.40;99.90;;;;;;5048337;28;20060;-73
2021/12/15 11:56:59;;;;;;;30.25;16.98;;;11.40;99.90;;;;;;5034639;28;20076;-69
2021/12/15 11:59:33;;;;;;;31.95;17.50;;;11.40;99.90;;;;;;5033721;28;20085;-71
2021/12/15 12:02:09;;;;;;;32.80;17.08;;;11.40;99.90;;;;;;5031829;28;20073;-72
2021/12/15 12:04:46;;;;;;;34.75;16.42;;;11.40;99.90;;;;;;5039765;28;20412;-71
2021/12/15 12:07:19;;;;;;;31.85;17.08;;;11.40;99.90;;;;;;5043689;28;20129;-71
2021/12/15 12:10:03;;;;;;;28.23;15.75;;;11.40;99.90;;;;;;5033042;28;20045;-71
2021/12/15 12:12:39;;;;;;;30.35;16.08;;;11.30;99.90;;;;;;5031616;28;20080;-70
2021/12/15 12:15:14;;;;;;;30.73;15.77;;;11.30;99.90;;;;;;5050793;28;20068;-72
2021/12/15 12:17:43;;;;;;;26.77;15.20;;;11.30;99.90;;;;;;5049344;28;20053;-72
2021/12/15 12:20:11;;;;;;;26.10;15.00;;;11.30;99.90;;;;;;5049310;28;20065;-70
2021/12/15 12:22:39;;;;;;;29.77;15.40;;;11.40;99.90;;;;;;5044309;28;20140;-69
2021/12/15 12:25:15;;;;;;;25.13;14.20;;;11.30;99.90;;;;;;5042234;28;20049;-68
2021/12/15 12:27:42;;;;;;;23.92;14.48;;;11.40;99.90;;;;;;5035628;28;20049;-69
2021/12/15 12:30:13;;;;;;;26.92;14.40;;;11.40;99.90;;;;;;5041228;28;20064;-74
2021/12/15 12:32:40;;;;;;;29.23;14.85;;;11.30;99.90;;;;;;5022481;28;20048;-70
2021/12/15 12:35:08;;;;;;;29.73;15.52;;;11.30;99.90;;;;;;5045160;28;20476;-70
2021/12/15 12:37:35;;;;;;;28.65;15.82;;;11.30;99.90;;;;;;5042200;28;20046;-75
2021/12/15 12:40:08;;;;;;;27.15;15.30;;;11.30;99.90;;;;;;5031492;28;20223;-74
2021/12/15 12:42:40;;;;;;;25.95;15.50;;;11.30;99.90;;;;;;5037794;28;20112;-74
2021/12/15 12:45:34;;;;;;;29.70;15.45;;;11.20;99.90;;;;;;5046260;28;20041;-74
2021/12/15 12:48:31;;;;;;;31.33;15.95;;;11.20;99.90;;;;;;5038517;28;20127;-73
2021/12/15 12:59:40;;;;;;;21.50;12.45;;;11.30;99.90;;;;;;5041559;28;20124;-74
2021/12/15 13:02:35;;;;;;;25.67;12.55;;;11.30;99.90;;;;;;5029758;28;20045;-75
2021/12/15 13:05:03;;;;;;;24.60;12.88;;;11.30;99.90;;;;;;5028460;28;20041;-75
2021/12/15 13:07:52;;;;;;;27.05;12.00;;;11.30;99.90;;;;;;5026440;28;20041;-75
2021/12/15 13:10:19;;;;;;;23.52;11.25;;;11.30;99.90;;;;;;5041847;28;20056;-75
2021/12/15 13:12:47;;;;;;;18.85;10.18;;;11.30;99.90;;;;;;5028875;28;20045;-73
2021/12/15 13:15:19;;;;;;;23.73;10.95;;;11.30;99.90;;;;;;5028794;28;20049;-75
2021/12/15 13:17:59;;;;;;;19.23;10.82;;;11.40;99.90;;;;;;5010591;28;20509;-75
2021/12/15 13:20:29;;;;;;;19.67;9.65;;;11.30;99.90;;;;;;5041933;28;20033;-75
2021/12/15 13:28:49;;;;;;;19.65;8.77;;;11.30;99.90;;;;;;5041916;28;20057;-76
2021/12/15 13:31:24;;;;;;;18.13;8.80;;;11.30;99.90;;;;;;5028767;28;20053;-76
2021/12/15 13:33:57;;;;;;;17.52;9.40;;;11.30;99.90;;;;;;5027093;28;20049;-76
2021/12/15 13:36:43;;;;;;;18.05;8.60;;;11.30;99.90;;;;;;5026915;28;20110;-77
2021/12/15 13:39:12;;;;;;;15.38;7.88;;;11.30;99.90;;;;;;5039794;28;20041;-76
2021/12/15 13:41:44;;;;;;;18.65;8.15;;;11.30;99.90;;;;;;5026448;28;20081;-76
2021/12/15 13:44:27;;;;;;;16.85;7.97;;;11.20;99.90;;;;;;5028784;28;20046;-76
2021/12/15 13:47:00;;;;;;;16.67;6.88;;;11.20;99.90;;;;;;5029753;28;20372;-76
2021/12/15 13:49:26;;;;;;;16.90;6.47;;;11.20;99.90;;;;;;5040457;28;20052;-74
2021/12/15 13:52:19;;;;;;;14.45;6.32;;;11.20;99.90;;;;;;5025477;28;20084;-75
2021/12/15 13:54:44;;;;;;;17.05;6.25;;;11.20;99.90;;;;;;5025496;28;20045;-75
2021/12/15 13:57:13;;;;;;;12.60;5.28;;;11.10;99.90;;;;;;5028432;28;20045;-76
2021/12/15 13:59:43;;;;;;;13.98;4.75;;;11.10;99.90;;;;;;5031126;28;20077;-75
2021/12/15 14:02:17;;;;;;;9.20;3.85;;;11.10;99.90;;;;;;5027167;28;20514;-76
2021/12/15 14:05:02;;;;;;;8.53;2.73;;;11.00;99.90;;;;;;5027529;28;20484;-77
2021/12/15 14:07:58;;;;;;;6.35;2.10;;;10.90;99.90;;;;;;5025861;28;20445;-74
2021/12/15 14:10:24;;;;;;;;;;;10.90;99.90;;;;;;5037702;28;20048;-75